Time;durP1;ratioP1;P1;durP2;ratioP2;P2;SDS_P1;SDS_P2;PMS_P1;PMS_P2;Temp;Humidity;BMP_temperature;BMP_pressure;BME280_temperature;BME280_humidity;BME280_pressure;Samples;Min_cycle;Max_cycle;Signal;HPM_P1;HPM_P2
2023/04/14 00:00:44;;;;;;;4.60;2.87;;;5.40;99.90;;;5.23;85.15;97112.81;5049816;28;20484;-77
2023/04/14 00:03:15;;;;;;;2.63;2.43;;;5.30;99.90;;;5.17;85.48;97101.09;5058686;28;20518;-78
2023/04/14 00:05:42;;;;;;;2.57;2.30;;;5.20;99.90;;;5.37;84.97;97109.13;5049973;28;20438;-77
2023/04/14 00:08:10;;;;;;;2.87;2.40;;;5.20;99.90;;;5.47;84.30;97113.28;5047648;28;20553;-77
2023/04/14 00:10:37;;;;;;;5.23;3.77;;;5.30;99.90;;;5.21;84.35;97107.69;5074326;28;20463;-77
2023/04/14 00:13:04;;;;;;;4.47;3.60;;;5.30;99.90;;;5.17;85.01;97093.06;5049523;28;20515;-77
2023/04/14 00:15:33;;;;;;;5.43;3.63;;;5.20;99.90;;;4.99;85.19;97080.25;5048494;28;20447;-78
2023/04/14 00:18:00;;;;;;;3.63;3.10;;;5.20;99.90;;;5.20;85.77;97106.03;5050783;28;20458;-77
2023/04/14 00:20:27;;;;;;;3.80;2.50;;;5.20;99.90;;;5.10;85.12;97093.03;5050635;28;20462;-77
2023/04/14 00:22:54;;;;;;;3.33;2.13;;;5.20;99.90;;;5.13;85.74;97102.50;5059656;28;20468;-77
2023/04/14 00:25:22;;;;;;;5.47;2.60;;;5.10;99.90;;;5.10;85.52;97092.19;5049002;28;20450;-77
2023/04/14 00:27:49;;;;;;;2.67;2.47;;;5.10;99.90;;;5.01;85.75;97094.25;5045829;28;20557;-77
2023/04/14 00:30:16;;;;;;;2.93;2.63;;;5.10;99.90;;;5.19;86.25;97107.06;5047761;28;20450;-78
2023/04/14 00:32:46;;;;;;;2.90;2.53;;;5.10;99.90;;;5.23;85.37;97104.78;5044572;28;20482;-77
2023/04/14 00:35:13;;;;;;;2.37;2.17;;;5.10;99.90;;;5.21;85.90;97101.47;5048572;28;20490;-77
2023/04/14 00:37:41;;;;;;;5.33;2.50;;;5.10;99.90;;;5.13;86.47;97107.03;5050928;28;20455;-77
2023/04/14 00:40:10;;;;;;;2.33;2.07;;;5.10;99.90;;;5.12;86.36;97089.34;5055162;28;20478;-77
2023/04/14 00:42:43;;;;;;;3.50;2.47;;;5.10;99.90;;;5.24;85.80;97098.41;5048862;28;20479;-76
2023/04/14 00:45:11;;;;;;;2.80;2.60;;;5.10;99.90;;;5.17;85.79;97108.28;5061523;28;20469;-78
2023/04/14 00:47:40;;;;;;;3.20;2.90;;;5.10;99.90;;;5.28;86.17;97118.41;5048369;28;21103;-78
2023/04/14 00:50:10;;;;;;;3.67;3.00;;;5.10;99.90;;;5.25;85.96;97113.47;5038512;28;20484;-79
2023/04/14 00:52:39;;;;;;;2.97;2.77;;;5.10;99.90;;;4.94;86.76;97112.16;5046248;28;20571;-81
2023/04/14 00:55:11;;;;;;;3.37;3.07;;;5.00;99.90;;;5.01;86.66;97120.22;5039380;28;20816;-80
2023/04/14 00:57:38;;;;;;;3.90;2.60;;;5.00;99.90;;;5.03;86.50;97135.03;5055762;28;20455;-80
2023/04/14 01:00:07;;;;;;;2.73;2.53;;;5.00;99.90;;;5.08;86.50;97129.91;5062438;28;20467;-79
2023/04/14 01:02:35;;;;;;;3.43;2.40;;;5.00;99.90;;;5.10;86.18;97138.56;5047033;28;20535;-80
2023/04/14 01:05:02;;;;;;;4.00;3.10;;;5.00;99.90;;;5.28;85.94;97136.31;5043539;28;20452;-79
2023/04/14 01:07:34;;;;;;;3.67;3.07;;;5.00;99.90;;;5.07;86.25;97140.81;5075478;28;20957;-77
2023/04/14 01:10:02;;;;;;;4.20;2.73;;;5.00;99.90;;;5.06;86.84;97145.31;5030645;28;20460;-77
2023/04/14 01:12:55;;;;;;;3.23;2.47;;;5.00;99.90;;;5.10;86.94;97143.91;5058523;28;20454;-79
2023/04/14 01:15:30;;;;;;;3.60;3.13;;;5.00;99.90;;;5.20;86.05;97140.00;5066568;28;20910;-79
2023/04/14 01:18:05;;;;;;;3.77;3.20;;;5.00;99.90;;;5.01;86.39;97142.44;5053310;28;20451;-78
2023/04/14 01:20:38;;;;;;;3.63;3.33;;;5.00;99.90;;;4.96;87.16;97135.00;5038605;28;20546;-79
2023/04/14 01:23:08;;;;;;;3.63;3.33;;;5.00;99.90;;;4.93;87.35;97161.38;5048303;28;20481;-78
2023/04/14 01:26:20;;;;;;;3.83;3.53;;;5.00;99.90;;;4.93;87.36;97156.00;5039367;28;20442;-78
2023/04/14 01:29:37;;;;;;;4.07;3.17;;;4.90;99.90;;;4.96;87.48;97156.41;5046209;28;20509;-77
2023/04/14 01:32:09;;;;;;;3.70;3.40;;;5.00;99.90;;;4.87;87.48;97132.72;5048416;28;20473;-76
2023/04/14 01:34:43;;;;;;;3.90;3.60;;;5.00;99.90;;;4.86;87.32;97139.09;5047272;28;20536;-78
2023/04/14 01:37:16;;;;;;;5.10;3.70;;;4.90;99.90;;;4.97;87.85;97147.34;5048356;28;20896;-78
2023/04/14 01:39:50;;;;;;;4.23;3.67;;;4.90;99.90;;;5.17;86.83;97143.09;5051441;28;20509;-78
2023/04/14 01:42:23;;;;;;;4.83;3.53;;;4.90;99.90;;;5.16;86.07;97149.47;5065925;28;20469;-78
2023/04/14 01:44:56;;;;;;;4.03;3.63;;;5.00;99.90;;;5.09;87.07;97138.75;5049049;28;20969;-76
2023/04/14 01:47:26;;;;;;;3.67;3.10;;;4.90;99.90;;;4.90;86.82;97126.94;5080054;28;20448;-77
2023/04/14 01:49:55;;;;;;;4.27;3.13;;;4.90;99.90;;;5.01;86.53;97136.28;5051297;28;20454;-77
2023/04/14 01:52:23;;;;;;;4.23;3.30;;;4.90;99.90;;;5.02;87.50;97128.03;5055546;28;20968;-77
2023/04/14 01:54:52;;;;;;;3.93;3.50;;;4.90;99.90;;;5.22;86.10;97127.22;5064815;28;20476;-76
2023/04/14 01:57:21;;;;;;;4.93;3.43;;;5.00;99.90;;;4.32;86.46;97030.00;5064149;28;20506;-76
2023/04/14 01:59:50;;;;;;;9.30;6.80;;;4.90;99.90;;;4.96;87.13;97132.31;5078598;28;20481;-76
2023/04/14 02:02:19;;;;;;;9.23;6.53;;;4.90;99.90;;;4.93;87.33;97126.56;5074439;28;20507;-75
2023/04/14 02:04:48;;;;;;;16.37;8.70;;;4.90;99.90;;;5.09;87.13;97128.88;5076739;28;20533;-74
2023/04/14 02:07:18;;;;;;;10.53;8.37;;;4.90;99.90;;;5.03;87.37;97129.66;5092042;28;20460;-76
2023/04/14 02:09:47;;;;;;;13.50;8.67;;;4.90;99.90;;;5.05;87.12;97126.81;5066616;28;20498;-77
2023/04/14 02:12:14;;;;;;;16.87;9.93;;;4.90;99.90;;;5.03;86.78;97123.50;5073562;28;20443;-76
2023/04/14 02:14:43;;;;;;;17.17;7.17;;;4.90;99.90;;;4.92;87.86;97127.56;5079813;28;20455;-77
2023/04/14 02:17:12;;;;;;;8.63;5.50;;;4.80;99.90;;;4.97;87.03;97131.28;5052415;28;20521;-78
2023/04/14 02:19:41;;;;;;;5.80;4.13;;;4.90;99.90;;;4.94;87.53;97114.84;5048185;28;20477;-77
2023/04/14 02:22:10;;;;;;;5.00;4.50;;;4.80;99.90;;;5.07;87.56;97108.69;5051891;28;20450;-79
2023/04/14 02:24:37;;;;;;;4.67;3.90;;;4.90;99.90;;;4.92;87.58;97117.69;5050115;28;20452;-77
2023/04/14 02:27:11;;;;;;;4.60;4.17;;;4.80;99.90;;;4.99;87.35;97112.38;5048934;28;20451;-77
2023/04/14 02:29:42;;;;;;;8.80;4.87;;;4.80;99.90;;;4.81;87.47;97113.75;5052003;28;20508;-76
2023/04/14 02:32:20;;;;;;;12.17;7.00;;;4.80;99.90;;;4.73;88.10;97107.75;5065626;28;20459;-74
2023/04/14 02:34:54;;;;;;;5.73;4.70;;;4.70;99.90;;;4.97;87.28;97119.78;5045066;28;20482;-76
2023/04/14 02:37:27;;;;;;;8.10;5.33;;;4.80;99.90;;;4.87;87.74;97111.28;5042974;28;20452;-76
2023/04/14 02:40:02;;;;;;;6.17;4.83;;;4.80;99.90;;;5.04;86.70;97125.97;5046323;28;20504;-75
2023/04/14 02:42:31;;;;;;;6.97;4.63;;;4.80;99.90;;;5.02;87.26;97133.38;5062454;28;20457;-75
2023/04/14 02:45:04;;;;;;;4.70;4.30;;;4.80;99.90;;;4.94;87.55;97144.28;5046573;28;20545;-75
2023/04/14 02:47:35;;;;;;;4.90;4.50;;;4.80;99.90;;;4.52;87.40;97069.38;5055094;28;20458;-78
2023/04/14 02:50:05;;;;;;;5.57;4.93;;;4.80;99.90;;;4.99;87.61;97139.13;5043259;28;20539;-77
2023/04/14 02:52:34;;;;;;;8.27;5.47;;;4.80;99.90;;;4.84;88.39;97147.31;5049900;28;20456;-77
2023/04/14 02:55:04;;;;;;;6.10;5.47;;;4.80;99.90;;;4.77;88.26;97157.97;5051388;28;20458;-78
2023/04/14 02:57:33;;;;;;;6.37;5.50;;;4.80;99.90;;;5.00;87.63;97154.19;5051924;28;20542;-78
2023/04/14 03:00:02;;;;;;;8.00;5.60;;;4.80;99.90;;;4.99;87.50;97149.84;5054787;28;20464;-76
2023/04/14 03:02:29;;;;;;;5.67;5.13;;;4.80;99.90;;;4.73;87.48;97135.34;5048623;28;21101;-77
2023/04/14 03:04:57;;;;;;;6.07;5.40;;;4.80;99.90;;;4.78;88.06;97154.31;5046445;28;20455;-76
2023/04/14 03:07:27;;;;;;;7.10;6.40;;;4.80;99.90;;;4.60;89.26;97148.66;5052712;28;20463;-76
2023/04/14 03:09:57;;;;;;;7.67;6.37;;;4.70;99.90;;;4.58;89.15;97121.28;5049061;28;20465;-76
2023/04/14 03:12:25;;;;;;;7.30;6.63;;;4.70;99.90;;;4.05;89.24;97048.59;5050828;28;20458;-77
2023/04/14 03:14:54;;;;;;;6.90;6.20;;;4.70;99.90;;;4.85;88.78;97126.72;5068721;28;20821;-76
2023/04/14 03:17:22;;;;;;;8.47;7.10;;;4.70;99.90;;;4.73;88.11;97100.53;5055511;28;20452;-76
2023/04/14 03:19:51;;;;;;;15.43;6.70;;;4.70;99.90;;;4.76;88.47;97110.03;5045930;28;20466;-77
2023/04/14 03:22:20;;;;;;;7.80;7.00;;;4.70;99.90;;;4.80;88.45;97117.47;5054054;28;20504;-76
2023/04/14 03:24:49;;;;;;;10.10;7.73;;;4.70;99.90;;;4.67;88.68;97109.38;5041820;28;20540;-76
2023/04/14 03:27:24;;;;;;;9.27;8.30;;;4.70;99.90;;;4.53;89.39;97095.94;5048598;28;20446;-76
2023/04/14 03:29:54;;;;;;;9.40;7.37;;;4.70;99.90;;;4.24;88.42;97033.69;5049681;28;20462;-79
2023/04/14 03:32:25;;;;;;;9.00;8.00;;;4.70;99.90;;;4.64;88.79;97109.78;5046685;28;20466;-78
2023/04/14 03:35:00;;;;;;;9.20;8.30;;;4.60;99.90;;;4.58;89.09;97105.22;5046932;28;20494;-76
2023/04/14 03:37:28;;;;;;;9.47;8.50;;;4.70;99.90;;;4.76;89.12;97099.31;5049974;28;20958;-76
2023/04/14 03:39:59;;;;;;;9.20;7.27;;;4.70;99.90;;;4.39;89.43;97073.66;5033305;28;21006;-77
2023/04/14 03:42:31;;;;;;;10.53;8.60;;;4.70;99.90;;;4.43;90.04;97105.38;5050390;28;20469;-76
2023/04/14 03:45:01;;;;;;;10.90;8.90;;;4.60;99.90;;;4.40;90.35;97098.56;5052839;28;20961;-78
2023/04/14 03:47:30;;;;;;;10.53;9.23;;;4.60;99.90;;;4.54;90.19;97126.19;5053303;28;20932;-76
2023/04/14 03:50:00;;;;;;;11.23;9.40;;;4.60;99.90;;;4.31;88.85;97036.38;5048374;28;21108;-77
2023/04/14 03:52:30;;;;;;;12.77;10.23;;;4.60;99.90;;;4.67;89.21;97107.50;5046316;28;20512;-79
2023/04/14 03:55:04;;;;;;;11.40;10.03;;;4.70;99.90;;;4.75;88.73;97119.91;5060502;28;20446;-75
2023/04/14 03:57:35;;;;;;;13.17;9.37;;;4.70;99.90;;;4.76;88.94;97118.88;5108591;28;20449;-77
2023/04/14 04:00:07;;;;;;;11.93;10.47;;;4.60;99.90;;;4.81;88.30;97115.59;5097920;28;20466;-76
2023/04/14 04:02:35;;;;;;;12.00;10.80;;;4.70;99.90;;;4.81;88.10;97120.94;5072004;28;20518;-76
2023/04/14 04:05:04;;;;;;;12.83;10.60;;;4.70;99.90;;;4.76;88.53;97124.22;5063796;28;20484;-78
2023/04/14 04:07:32;;;;;;;12.73;11.17;;;4.70;99.90;;;4.62;89.27;97109.13;5052533;28;20512;-77
2023/04/14 04:10:01;;;;;;;13.70;11.23;;;4.60;99.90;;;4.33;90.64;97092.38;5052461;28;21023;-78
2023/04/14 04:12:29;;;;;;;17.50;12.90;;;4.60;99.90;;;4.38;90.43;97125.50;5055243;28;20450;-78
2023/04/14 04:14:58;;;;;;;55.20;30.37;;;4.50;99.90;;;3.42;91.17;96957.81;5060336;28;20558;-78
2023/04/14 04:17:30;;;;;;;25.70;17.07;;;4.50;99.90;;;4.34;91.30;97105.53;5069441;28;20450;-75
2023/04/14 04:19:58;;;;;;;25.67;17.13;;;4.50;99.90;;;4.54;90.72;97102.09;5064126;28;20446;-76
2023/04/14 04:22:27;;;;;;;15.37;12.30;;;4.50;99.90;;;4.55;90.41;97093.09;5072099;28;20481;-76
2023/04/14 04:24:56;;;;;;;14.37;12.77;;;4.50;99.90;;;4.60;90.13;97097.81;5069806;28;20535;-76
2023/04/14 04:27:24;;;;;;;17.23;12.27;;;4.50;99.90;;;4.37;89.80;97090.94;5052577;28;20455;-78
2023/04/14 04:29:52;;;;;;;14.47;12.50;;;4.40;99.90;;;4.69;89.97;97101.97;5049237;28;20541;-77
2023/04/14 04:32:20;;;;;;;18.87;13.03;;;4.50;99.90;;;4.67;89.65;97104.84;5041151;28;20442;-77
2023/04/14 04:34:49;;;;;;;17.63;14.07;;;4.50;99.90;;;4.47;90.34;97107.44;5046962;28;20471;-77
2023/04/14 04:37:17;;;;;;;14.33;12.23;;;4.50;99.90;;;4.57;90.45;97084.84;5047835;28;20503;-78
2023/04/14 04:39:44;;;;;;;17.27;12.77;;;4.50;99.90;;;4.58;90.59;97095.34;5049947;28;20455;-74
2023/04/14 04:42:11;;;;;;;15.30;13.37;;;4.50;99.90;;;4.64;90.12;97091.06;5054893;28;20454;-73
2023/04/14 04:44:38;;;;;;;20.33;14.20;;;4.50;99.90;;;4.63;90.63;97098.25;5039416;28;20479;-73
2023/04/14 04:47:06;;;;;;;29.77;18.27;;;4.50;99.90;;;4.70;89.74;97087.56;5044523;28;20464;-74
2023/04/14 04:49:35;;;;;;;24.43;18.10;;;4.60;99.90;;;4.59;89.08;97086.31;5066921;28;20833;-74
2023/04/14 04:52:02;;;;;;;30.83;20.23;;;4.60;99.90;;;4.75;89.79;97111.06;5043495;28;20465;-72
2023/04/14 04:54:29;;;;;;;28.80;19.10;;;4.60;99.90;;;4.74;89.16;97106.72;5049263;28;20457;-73
2023/04/14 04:56:57;;;;;;;30.07;19.57;;;4.70;99.90;;;4.65;89.47;97098.06;5046993;28;20451;-73
2023/04/14 04:59:24;;;;;;;26.77;20.13;;;4.70;99.90;;;4.79;89.21;97112.28;5044172;28;20870;-72
2023/04/14 05:01:52;;;;;;;29.63;18.83;;;4.70;99.90;;;4.82;89.30;97111.88;5046579;28;20449;-73
2023/04/14 05:04:20;;;;;;;33.37;20.33;;;4.70;99.90;;;4.89;89.05;97119.94;5036358;28;20525;-75
2023/04/14 05:06:48;;;;;;;25.37;18.10;;;4.70;99.90;;;5.06;89.10;97120.41;5037186;28;20448;-74
2023/04/14 05:09:16;;;;;;;22.87;16.40;;;4.90;99.90;;;4.98;88.02;97118.75;5044006;28;20469;-75
2023/04/14 05:11:43;;;;;;;16.80;13.17;;;4.90;99.90;;;4.90;88.07;97122.44;5040098;28;20451;-73
2023/04/14 05:14:10;;;;;;;18.60;14.13;;;4.90;99.90;;;4.77;88.48;97112.50;5039805;28;20951;-72
2023/04/14 05:16:38;;;;;;;16.80;13.30;;;4.80;99.90;;;4.80;88.83;97136.19;5042558;28;20455;-72
2023/04/14 05:19:05;;;;;;;15.87;13.80;;;4.80;99.90;;;4.75;89.58;97138.63;5044852;28;21021;-75
2023/04/14 05:21:32;;;;;;;14.77;12.50;;;4.80;99.90;;;4.54;88.29;97086.06;5047677;28;20511;-72
2023/04/14 05:24:02;;;;;;;15.67;13.20;;;4.80;99.90;;;4.99;88.35;97141.81;5046430;28;20509;-72
2023/04/14 05:26:30;;;;;;;16.10;13.53;;;4.90;99.90;;;5.00;87.81;97134.59;5040566;28;20503;-71
2023/04/14 05:28:57;;;;;;;16.20;12.10;;;4.90;99.90;;;4.89;87.34;97134.16;5031858;28;21059;-73
2023/04/14 05:31:24;;;;;;;14.73;13.00;;;4.90;99.90;;;5.12;87.91;97145.56;5043597;28;20870;-72
2023/04/14 05:33:52;;;;;;;17.30;14.80;;;4.90;99.90;;;5.08;87.77;97148.66;5037826;28;20529;-73
2023/04/14 05:36:19;;;;;;;14.47;12.87;;;5.00;99.90;;;4.93;87.02;97091.78;5044248;28;20458;-74
2023/04/14 05:38:46;;;;;;;14.97;12.13;;;5.00;99.90;;;5.30;86.79;97142.28;5039112;28;20971;-75
2023/04/14 05:41:15;;;;;;;14.07;12.50;;;5.10;99.90;;;5.51;85.28;97152.00;5065803;28;20482;-74
2023/04/14 05:43:42;;;;;;;12.43;11.00;;;5.20;99.90;;;5.62;85.50;97143.38;5041181;28;20867;-73
2023/04/14 05:46:09;;;;;;;16.20;12.30;;;5.40;99.90;;;5.58;86.77;97133.25;5043660;28;20466;-75
2023/04/14 05:48:37;;;;;;;15.23;12.07;;;5.40;99.90;;;5.73;86.63;97138.44;5044301;28;20450;-74
2023/04/14 05:51:04;;;;;;;14.53;11.40;;;5.50;99.90;;;5.55;85.66;97126.47;5053511;28;20454;-73
2023/04/14 05:53:31;;;;;;;14.67;11.33;;;5.60;99.90;;;5.68;85.64;97137.19;5046955;28;20452;-73
2023/04/14 05:55:58;;;;;;;15.33;12.27;;;5.70;99.90;;;5.78;85.35;97130.59;5037855;28;20525;-74
2023/04/14 05:58:27;;;;;;;15.73;12.30;;;5.60;99.90;;;5.81;85.12;97127.50;5045598;28;21011;-76
2023/04/14 06:00:54;;;;;;;15.67;11.47;;;5.70;99.90;;;5.68;84.01;97131.81;5039996;28;21028;-73
2023/04/14 06:03:22;;;;;;;14.23;11.20;;;5.70;99.90;;;5.70;83.84;97130.81;5037539;28;20549;-74
2023/04/14 06:05:49;;;;;;;12.00;10.80;;;5.70;99.90;;;5.68;84.91;97137.19;5044090;28;20466;-74
2023/04/14 06:08:17;;;;;;;15.90;11.30;;;5.60;99.90;;;5.57;84.80;97151.22;5047328;28;20460;-75
2023/04/14 06:10:44;;;;;;;11.47;10.13;;;5.60;99.90;;;5.60;85.37;97150.81;5047673;28;20934;-75
2023/04/14 06:13:11;;;;;;;15.23;11.70;;;5.50;99.90;;;5.82;84.51;97154.09;5037383;28;20458;-75
2023/04/14 06:15:41;;;;;;;17.80;13.20;;;5.70;99.90;;;5.80;83.97;97150.81;5044993;28;20478;-74
2023/04/14 06:18:08;;;;;;;20.87;14.23;;;5.70;99.90;;;5.98;84.10;97141.31;5049187;28;20450;-75
2023/04/14 06:20:36;;;;;;;20.60;13.43;;;5.80;99.90;;;6.05;83.74;97135.97;5044796;28;20510;-75
2023/04/14 06:23:04;;;;;;;11.00;9.23;;;5.90;99.90;;;6.00;82.95;97143.81;5043052;28;20454;-74
2023/04/14 06:25:32;;;;;;;12.30;11.10;;;5.90;99.50;;;6.13;83.41;97138.44;5075888;28;20472;-75
2023/04/14 06:28:02;;;;;;;10.30;8.73;;;6.00;99.90;;;6.12;82.16;97141.34;5048016;28;20464;-74
2023/04/14 06:30:31;;;;;;;10.73;8.10;;;6.10;99.00;;;6.18;82.18;97146.69;5049822;28;20458;-77
2023/04/14 06:33:03;;;;;;;11.20;8.90;;;6.10;97.20;;;6.26;81.31;97139.44;5041812;28;20470;-76
2023/04/14 06:35:30;;;;;;;9.60;8.57;;;6.10;95.90;;;6.29;81.95;97126.44;5040924;28;20511;-77
2023/04/14 06:37:57;;;;;;;9.97;8.90;;;6.10;95.90;;;6.31;82.39;97131.63;5038232;28;20469;-74
2023/04/14 06:40:25;;;;;;;11.40;9.20;;;6.20;96.80;;;6.24;81.04;97129.75;5060913;28;20454;-73
2023/04/14 06:42:52;;;;;;;13.60;10.83;;;6.20;95.30;;;6.27;81.01;97130.38;5046395;28;21104;-74
2023/04/14 06:45:19;;;;;;;12.33;8.80;;;6.20;95.20;;;6.59;80.53;97134.00;5038890;28;20472;-73
2023/04/14 06:47:46;;;;;;;10.37;8.60;;;6.30;96.20;;;6.57;80.69;97130.72;5050519;28;20493;-74
2023/04/14 06:50:15;;;;;;;9.63;8.63;;;6.40;95.20;;;6.27;79.85;97080.22;5044242;28;20459;-72
2023/04/14 06:52:42;;;;;;;9.90;8.37;;;6.50;94.50;;;6.89;79.56;97127.28;5044749;28;20541;-75
2023/04/14 06:55:10;;;;;;;8.20;7.20;;;6.60;94.60;;;6.49;80.06;97125.56;5041811;28;20451;-72
2023/04/14 06:57:37;;;;;;;9.17;8.17;;;6.60;93.50;;;6.49;80.81;97137.13;5048566;28;20495;-74
2023/04/14 07:00:08;;;;;;;12.77;10.43;;;6.40;93.60;;;6.04;79.96;97027.06;5047628;28;20449;-75
2023/04/14 07:02:35;;;;;;;8.73;7.53;;;6.50;94.90;;;6.69;80.06;97125.50;5045630;28;20457;-74
2023/04/14 07:05:02;;;;;;;10.17;8.57;;;6.60;94.80;;;6.65;79.54;97114.34;5028726;28;20488;-73
2023/04/14 07:07:35;;;;;;;7.00;6.30;;;6.60;93.70;;;6.42;80.42;97122.09;5049464;28;20487;-73
2023/04/14 07:10:02;;;;;;;8.63;7.70;;;6.50;93.80;;;6.41;80.67;97129.31;5039224;28;20558;-73
2023/04/14 07:12:30;;;;;;;11.27;8.40;;;6.40;93.70;;;6.59;79.80;97114.38;5055450;28;20449;-74
2023/04/14 07:14:57;;;;;;;10.47;7.10;;;6.50;94.10;;;6.71;79.56;97123.44;5057845;28;20448;-73
2023/04/14 07:17:24;;;;;;;7.93;7.00;;;6.60;93.60;;;7.09;77.94;97136.06;5044869;28;20451;-73
2023/04/14 07:19:52;;;;;;;7.67;6.90;;;6.90;92.60;;;7.01;77.35;97130.94;5050813;28;20831;-72
2023/04/14 07:22:19;;;;;;;8.30;7.53;;;6.90;91.70;;;7.11;77.30;97129.66;5046354;28;20443;-75
2023/04/14 07:24:48;;;;;;;8.40;6.37;;;7.00;91.50;;;7.30;76.25;97125.22;5065600;28;20471;-73
2023/04/14 07:27:15;;;;;;;7.17;6.43;;;7.20;90.80;;;7.48;75.95;97122.63;5047958;28;20472;-73
2023/04/14 07:29:42;;;;;;;11.80;9.10;;;7.30;90.60;;;7.36;75.69;97119.81;5070668;28;20516;-75
2023/04/14 07:32:10;;;;;;;8.00;6.83;;;7.30;90.10;;;7.15;76.08;97074.47;5059425;28;20831;-74
2023/04/14 07:34:38;;;;;;;8.50;7.67;;;7.40;90.10;;;7.67;75.37;97129.94;5065659;28;20564;-73
2023/04/14 07:37:05;;;;;;;7.90;7.10;;;7.50;90.30;;;7.68;75.05;97134.28;5059661;28;20460;-76
2023/04/14 07:39:32;;;;;;;7.80;6.20;;;7.50;89.60;;;7.54;75.97;97130.84;5056316;28;21515;-72
2023/04/14 07:42:01;;;;;;;7.40;6.17;;;7.60;90.00;;;7.89;75.00;97133.88;5063788;28;20551;-73
2023/04/14 07:44:28;;;;;;;7.37;6.67;;;7.70;90.10;;;8.20;73.27;97128.66;5062090;28;20469;-73
2023/04/14 07:46:55;;;;;;;7.33;6.63;;;7.90;88.50;;;8.12;72.93;97129.75;5068000;28;20451;-71
2023/04/14 07:49:25;;;;;;;6.30;5.70;;;8.00;86.80;;;8.23;73.10;97131.69;5059592;28;20459;-72
2023/04/14 07:51:52;;;;;;;8.93;6.20;;;8.00;87.40;;;8.01;74.01;97131.28;5084716;28;20444;-71
2023/04/14 07:54:19;;;;;;;6.80;6.10;;;8.00;87.00;;;8.21;72.36;97125.72;5074031;28;20559;-73
2023/04/14 07:56:47;;;;;;;4.43;4.03;;;8.10;86.30;;;8.05;72.81;97128.97;5045368;28;20461;-74
2023/04/14 07:59:16;;;;;;;5.53;4.90;;;8.10;85.50;;;8.18;71.60;97115.41;5040558;28;20456;-73
2023/04/14 08:01:43;;;;;;;5.00;4.50;;;8.20;85.90;;;8.33;71.32;97123.13;5038558;28;20468;-73
2023/04/14 08:04:11;;;;;;;6.43;5.83;;;8.30;84.30;;;8.41;72.10;97130.06;5072163;28;20969;-73
2023/04/14 08:06:38;;;;;;;5.30;4.80;;;8.30;85.20;;;8.58;71.37;97137.63;5051654;28;21437;-74
2023/04/14 08:09:05;;;;;;;6.07;5.20;;;8.50;84.60;;;8.72;70.31;97130.19;5036225;28;20609;-75
2023/04/14 08:11:33;;;;;;;6.30;5.40;;;8.60;84.00;;;9.05;69.61;97124.41;5043290;28;20458;-72
2023/04/14 08:14:00;;;;;;;5.50;5.00;;;8.80;84.00;;;8.93;69.42;97128.91;5057078;28;21013;-73
2023/04/14 08:16:29;;;;;;;9.57;8.60;;;8.90;83.30;;;8.74;71.81;97133.47;5052312;28;21008;-73
2023/04/14 08:18:56;;;;;;;6.37;5.40;;;8.80;84.50;;;8.75;69.60;97117.13;5039670;28;20456;-74
2023/04/14 08:21:23;;;;;;;6.00;5.40;;;8.70;83.10;;;8.77;68.86;97123.09;5041382;28;20517;-74
2023/04/14 08:23:51;;;;;;;6.63;4.87;;;8.70;82.70;;;8.73;70.49;97132.69;5041196;28;20442;-73
2023/04/14 08:26:18;;;;;;;6.70;5.60;;;8.60;83.30;;;8.66;71.37;97121.16;5041486;28;20865;-74
2023/04/14 08:28:46;;;;;;;6.80;6.10;;;8.70;83.70;;;8.49;70.02;97059.78;5045154;28;20531;-74
2023/04/14 08:31:13;;;;;;;6.43;5.67;;;8.80;83.10;;;9.20;68.88;97136.66;5046005;28;20459;-72
2023/04/14 08:33:42;;;;;;;5.83;5.27;;;9.00;83.10;;;8.91;68.21;97077.94;5057806;28;20466;-71
2023/04/14 08:36:10;;;;;;;6.97;5.50;;;9.10;82.50;;;8.59;69.44;97125.81;5067070;28;20441;-71
2023/04/14 08:38:37;;;;;;;8.27;5.73;;;8.90;81.70;;;8.92;70.09;97127.28;5047740;28;20448;-72
2023/04/14 08:41:08;;;;;;;6.73;6.03;;;8.90;83.20;;;9.17;69.35;97120.91;5051841;28;20462;-71
2023/04/14 08:43:36;;;;;;;8.33;5.20;;;9.10;83.00;;;9.69;68.49;97111.47;5045264;28;20473;-71
2023/04/14 08:46:04;;;;;;;5.33;4.83;;;9.40;82.80;;;9.91;66.80;97109.03;5042181;28;20657;-71
2023/04/14 08:48:37;;;;;;;5.93;4.67;;;9.60;81.60;;;10.08;65.37;97122.63;5046264;28;20535;-71
2023/04/14 08:51:14;;;;;;;5.03;4.53;;;9.80;81.30;;;10.05;64.95;97121.25;5063522;28;20920;-70
2023/04/14 08:53:44;;;;;;;6.83;5.13;;;10.00;79.30;;;10.11;65.37;97121.34;5043954;28;20489;-70
2023/04/14 08:56:15;;;;;;;4.87;4.47;;;9.90;80.30;;;9.81;64.02;97017.06;5037007;28;20552;-71
2023/04/14 08:58:42;;;;;;;6.20;5.30;;;10.20;79.10;;;10.66;63.43;97128.25;5040786;28;20464;-71
2023/04/14 09:01:10;;;;;;;5.20;4.73;;;10.30;78.90;;;10.79;62.72;97123.66;5045635;28;20451;-73
2023/04/14 09:03:38;;;;;;;5.13;3.97;;;10.60;78.10;;;10.41;63.32;97137.47;5040657;28;22332;-73
2023/04/14 09:06:06;;;;;;;4.40;4.00;;;10.40;77.50;;;10.41;64.23;97142.03;5040963;28;20474;-72
2023/04/14 09:08:35;;;;;;;5.37;4.70;;;10.30;78.20;;;10.67;62.98;97132.59;5044132;28;21031;-71
2023/04/14 09:11:03;;;;;;;7.07;4.90;;;10.40;77.70;;;10.64;62.07;97138.50;5064446;28;20449;-73
2023/04/14 09:13:31;;;;;;;5.50;4.97;;;10.50;77.40;;;10.47;63.30;97136.53;5050865;28;20449;-72
2023/04/14 09:16:00;;;;;;;5.23;4.37;;;10.30;77.00;;;10.53;62.78;97136.63;5036227;28;20629;-72
2023/04/14 09:18:30;;;;;;;5.00;4.50;;;10.30;77.40;;;10.37;62.82;97135.44;5050892;28;20454;-73
2023/04/14 09:20:58;;;;;;;4.73;4.30;;;10.20;77.20;;;10.66;62.33;97135.56;5049052;28;20461;-72
2023/04/14 09:23:25;;;;;;;6.00;4.30;;;10.30;77.10;;;10.67;62.31;97127.19;5043540;28;20442;-72
2023/04/14 09:25:56;;;;;;;4.87;4.47;;;10.40;77.50;;;10.70;62.67;97142.97;5043404;28;20477;-73
2023/04/14 09:28:23;;;;;;;5.20;4.07;;;10.50;77.40;;;10.10;63.68;97136.75;5034756;28;20521;-72
2023/04/14 09:30:50;;;;;;;4.97;4.47;;;10.20;77.30;;;10.16;63.18;97143.91;5040346;28;20457;-73
2023/04/14 09:33:22;;;;;;;5.37;4.80;;;10.00;77.30;;;9.95;64.45;97155.25;5053625;28;20608;-73
2023/04/14 09:35:51;;;;;;;5.10;3.93;;;9.90;78.60;;;9.91;64.84;97153.00;5045092;28;21001;-72
2023/04/14 09:38:33;;;;;;;4.80;4.40;;;9.80;79.10;;;9.76;64.57;97145.38;5041326;28;20930;-72
2023/04/14 09:41:02;;;;;;;4.97;3.77;;;9.70;78.60;;;9.93;64.31;97144.69;5042286;28;20551;-72
2023/04/14 09:43:30;;;;;;;5.07;4.03;;;9.80;79.00;;;9.93;64.65;97133.91;5040582;28;20463;-72
2023/04/14 09:46:03;;;;;;;3.63;3.33;;;9.80;79.00;;;9.99;64.54;97145.66;5035451;28;20935;-73
2023/04/14 09:48:31;;;;;;;5.00;4.50;;;9.90;78.90;;;10.51;63.17;97136.88;5042413;28;20462;-73
2023/04/14 09:51:05;;;;;;;6.70;4.20;;;10.10;77.80;;;10.83;61.25;97124.81;5040313;28;20520;-73
2023/04/14 09:53:34;;;;;;;5.60;4.20;;;10.60;77.60;;;11.05;60.32;97133.94;5034328;28;20525;-73
2023/04/14 09:56:05;;;;;;;4.50;4.07;;;10.90;75.70;;;11.28;59.83;97134.09;5024595;28;20461;-72
2023/04/14 09:58:35;;;;;;;4.60;4.20;;;11.00;75.70;;;11.44;59.23;97146.00;5037410;28;20873;-74
2023/04/14 10:01:04;;;;;;;5.03;4.03;;;11.10;74.90;;;11.31;59.51;97142.53;5041766;28;20445;-74
2023/04/14 10:03:36;;;;;;;4.20;3.80;;;11.10;74.90;;;11.64;58.60;97140.13;5056964;28;20450;-72
2023/04/14 10:06:08;;;;;;;7.33;4.73;;;11.50;74.20;;;11.73;58.66;97135.13;5043495;28;20565;-72
2023/04/14 10:08:40;;;;;;;5.90;4.30;;;11.70;73.90;;;12.00;57.88;97131.81;5043612;28;20468;-72
2023/04/14 10:11:18;;;;;;;4.30;3.90;;;11.80;73.60;;;11.66;57.72;97137.19;5033922;28;20451;-72
2023/04/14 10:13:46;;;;;;;4.50;4.10;;;11.60;72.60;;;11.57;58.36;97129.47;5045252;28;20455;-71
2023/04/14 10:16:14;;;;;;;3.60;3.30;;;11.40;73.20;;;11.63;58.29;97108.75;5060241;28;20591;-72
2023/04/14 10:18:41;;;;;;;5.00;4.27;;;11.50;73.20;;;11.74;58.12;97112.44;5068046;28;20452;-73
2023/04/14 10:21:10;;;;;;;5.43;4.70;;;11.60;73.00;;;11.56;57.72;97100.78;5041070;28;20487;-71
2023/04/14 10:23:39;;;;;;;4.93;4.27;;;11.40;72.70;;;11.61;58.11;97098.19;5042727;28;20807;-72
2023/04/14 10:26:08;;;;;;;4.70;4.30;;;11.40;73.00;;;11.81;58.41;97096.88;5056964;28;20487;-73
2023/04/14 10:28:40;;;;;;;4.60;4.10;;;11.50;73.20;;;12.12;56.76;97091.94;5057906;28;20748;-72
2023/04/14 10:31:14;;;;;;;6.30;4.30;;;11.80;72.30;;;12.33;56.05;97097.66;5042473;28;20540;-73
2023/04/14 10:33:42;;;;;;;5.30;4.80;;;12.00;71.70;;;12.09;56.36;97042.88;5039922;28;20462;-73
2023/04/14 10:36:09;;;;;;;4.60;3.80;;;12.30;71.50;;;12.87;54.62;97088.06;5040381;28;20541;-73